Terminal Aerodrome Forecast
Issued by NWS Wilmington, OH

Current Version | Previous Version | Graphics & Text | Print | Product List | Glossary On
Versions: 1 2 3 4 5 6 7 8 9 10 11 12 13 14 15 16 17 18 19 20 21 22 23 24 25 26 27 28 29 30 31
000
FTUS41 KILN 190900 AAC
TAFDAY
TAF AMD
KDAY 190903Z 1909/2006 17006KT 2SM -RA BR SCT008 BKN013 OVC026
     FM191200 12005KT P6SM OVC022
     FM191700 11006KT P6SM VCSH OVC035
      TEMPO 1919/1923 -SHRA
     FM200000 11003KT P6SM OVC025=

USA.gov is the U.S. government's official web portal to all federal, state and local government web resources and services.